Time;durP1;ratioP1;P1;durP2;ratioP2;P2;SDS_P1;SDS_P2;PMS_P1;PMS_P2;Temp;Humidity;BMP_temperature;BMP_pressure;BME280_temperature;BME280_humidity;BME280_pressure;Samples;Min_cycle;Max_cycle;Signal;HPM_P1;HPM_P2
2023/04/06 00:00:31;;;;;;;1999.90;999.90;;;5.30;99.90;;;;;;5012230;28;20411;-72
2023/04/06 00:02:57;;;;;;;1999.90;999.90;;;5.30;99.90;;;;;;5012012;28;20419;-73
2023/04/06 00:05:22;;;;;;;1999.90;999.90;;;5.20;99.90;;;;;;5011818;28;20657;-73
2023/04/06 00:07:49;;;;;;;1999.90;999.90;;;5.10;99.90;;;;;;5011860;28;20189;-73
2023/04/06 00:10:16;;;;;;;1999.90;999.90;;;5.00;99.90;;;;;;5012023;28;20411;-73
2023/04/06 00:12:42;;;;;;;1999.90;999.90;;;4.90;99.90;;;;;;5011994;28;20509;-73
2023/04/06 00:15:08;;;;;;;1999.90;999.90;;;4.90;99.90;;;;;;5015298;28;20408;-72
2023/04/06 00:17:34;;;;;;;1999.90;999.90;;;4.90;99.90;;;;;;5015785;28;20188;-73
2023/04/06 00:20:00;;;;;;;1999.90;999.90;;;4.80;99.90;;;;;;5016005;28;20465;-72
2023/04/06 00:22:26;;;;;;;1999.90;999.90;;;4.70;99.90;;;;;;5016128;28;20238;-73
2023/04/06 00:24:51;;;;;;;1999.90;999.90;;;4.60;99.90;;;;;;5015502;28;20499;-73
2023/04/06 00:27:17;;;;;;;1999.90;999.90;;;4.50;99.90;;;;;;5015737;28;20729;-73
2023/04/06 00:29:44;;;;;;;1999.90;999.90;;;4.40;99.90;;;;;;5015866;28;20181;-73
2023/04/06 00:32:09;;;;;;;1999.90;999.90;;;4.40;99.90;;;;;;5015720;28;20193;-73
2023/04/06 00:34:35;;;;;;;1999.90;999.90;;;4.30;99.90;;;;;;5015241;28;20434;-73
2023/04/06 00:37:01;;;;;;;1999.90;999.90;;;4.10;99.90;;;;;;5015485;28;20200;-73
2023/04/06 00:39:26;;;;;;;1999.90;999.90;;;4.20;99.90;;;;;;5015764;28;20223;-72
2023/04/06 00:41:53;;;;;;;1999.90;999.90;;;4.20;99.90;;;;;;5015680;28;20184;-73
2023/04/06 00:44:20;;;;;;;1999.90;999.90;;;4.20;99.90;;;;;;5015183;28;20553;-73
2023/04/06 00:46:46;;;;;;;1999.90;999.90;;;4.20;99.90;;;;;;5015213;28;20490;-72
2023/04/06 00:49:11;;;;;;;1999.90;999.90;;;4.20;99.90;;;;;;5015480;28;20876;-72
2023/04/06 00:51:37;;;;;;;1999.90;999.90;;;4.20;99.90;;;;;;5015430;28;20681;-72
2023/04/06 00:54:03;;;;;;;1999.90;999.90;;;4.20;99.90;;;;;;5014922;28;20260;-73
2023/04/06 00:56:29;;;;;;;1999.90;999.90;;;4.10;99.90;;;;;;5015248;28;20184;-73
2023/04/06 00:58:55;;;;;;;1999.90;999.90;;;4.10;99.90;;;;;;5015248;28;20196;-73
2023/04/06 01:01:21;;;;;;;1999.90;999.90;;;4.10;99.90;;;;;;5015295;28;20169;-72
2023/04/06 01:03:49;;;;;;;1999.90;999.90;;;4.00;99.90;;;;;;5014692;28;20535;-73
2023/04/06 01:06:15;;;;;;;1999.90;999.90;;;4.00;99.90;;;;;;5014968;28;20173;-73
2023/04/06 01:08:40;;;;;;;1999.90;999.90;;;4.00;99.90;;;;;;5015094;28;20424;-73
2023/04/06 01:11:06;;;;;;;1999.90;999.90;;;4.00;99.90;;;;;;5015170;28;20170;-73
2023/04/06 01:13:32;;;;;;;1999.90;999.90;;;4.00;99.90;;;;;;5014550;28;20205;-73
2023/04/06 01:15:58;;;;;;;1999.90;999.90;;;3.90;99.90;;;;;;5014796;28;20165;-73
2023/04/06 01:18:27;;;;;;;1999.90;999.90;;;3.80;99.90;;;;;;5014873;28;20942;-73
2023/04/06 01:20:53;;;;;;;1999.90;999.90;;;3.80;99.90;;;;;;5014926;28;20416;-73
2023/04/06 01:23:19;;;;;;;1999.90;999.90;;;3.80;99.90;;;;;;5014391;28;20420;-73
2023/04/06 01:25:45;;;;;;;1999.90;999.90;;;3.80;99.90;;;;;;5014533;28;20177;-73
2023/04/06 01:28:10;;;;;;;1999.90;999.90;;;3.80;99.90;;;;;;5014609;28;20259;-73
2023/04/06 01:30:36;;;;;;;1999.90;999.90;;;3.80;99.90;;;;;;5014737;28;20447;-73
2023/04/06 01:33:02;;;;;;;1999.90;999.90;;;3.80;99.90;;;;;;5014091;28;20205;-73
2023/04/06 01:35:28;;;;;;;1999.90;999.90;;;3.80;99.90;;;;;;5014704;28;20642;-73
2023/04/06 01:37:54;;;;;;;1999.90;999.90;;;3.80;99.90;;;;;;5014372;28;20482;-73
2023/04/06 01:40:20;;;;;;;1999.90;999.90;;;3.70;99.90;;;;;;5014614;28;20439;-73
2023/04/06 01:42:46;;;;;;;1999.90;999.90;;;3.60;99.90;;;;;;5014517;28;20528;-73
2023/04/06 01:45:11;;;;;;;1999.90;999.90;;;3.60;99.90;;;;;;5013956;28;20416;-72
2023/04/06 01:47:37;;;;;;;1999.90;999.90;;;3.60;99.90;;;;;;5014080;28;20263;-73
2023/04/06 01:50:05;;;;;;;1999.90;999.90;;;3.60;99.90;;;;;;5014575;28;20181;-73
2023/04/06 01:52:32;;;;;;;1999.90;999.90;;;3.60;99.90;;;;;;5014260;28;20605;-73
2023/04/06 01:54:58;;;;;;;1999.90;999.90;;;3.50;99.90;;;;;;5013775;28;20447;-73
2023/04/06 01:57:23;;;;;;;1999.90;999.90;;;3.50;99.90;;;;;;5014010;28;20928;-73
2023/04/06 01:59:49;;;;;;;1999.90;999.90;;;3.40;99.90;;;;;;5014152;28;20683;-73
2023/04/06 02:02:15;;;;;;;1999.90;999.90;;;3.30;99.90;;;;;;5014206;28;20227;-73
2023/04/06 02:04:40;;;;;;;1999.90;999.90;;;3.30;99.90;;;;;;5013553;28;20439;-73
2023/04/06 02:07:06;;;;;;;1999.90;999.90;;;3.20;99.90;;;;;;5013866;28;20200;-73
2023/04/06 02:09:32;;;;;;;1999.90;999.90;;;3.20;99.90;;;;;;5014010;28;20255;-73
2023/04/06 02:11:57;;;;;;;1999.90;999.90;;;3.20;99.90;;;;;;5013925;28;20192;-73
2023/04/06 02:14:25;;;;;;;1999.90;999.90;;;3.20;99.90;;;;;;5013436;28;20530;-73
2023/04/06 02:16:51;;;;;;;1999.90;999.90;;;3.20;99.90;;;;;;5013656;28;20173;-73
2023/04/06 02:19:16;;;;;;;1999.90;999.90;;;3.20;99.90;;;;;;5013759;28;20511;-73
2023/04/06 02:21:42;;;;;;;1999.90;999.90;;;3.20;99.90;;;;;;5015456;28;20181;-74
2023/04/06 02:24:08;;;;;;;1999.90;999.90;;;3.00;99.90;;;;;;5016049;28;20169;-73
2023/04/06 02:26:33;;;;;;;1999.90;999.90;;;3.00;99.90;;;;;;5016635;28;20165;-73
2023/04/06 02:28:59;;;;;;;1999.90;999.90;;;2.90;99.90;;;;;;5016475;28;20219;-73
2023/04/06 02:31:26;;;;;;;1999.90;999.90;;;3.10;99.90;;;;;;5016002;28;20177;-73
2023/04/06 02:33:51;;;;;;;1999.90;999.90;;;3.20;99.90;;;;;;5015248;28;20259;-73
2023/04/06 02:36:17;;;;;;;1999.90;999.90;;;2.80;99.90;;;;;;5015255;28;20914;-73
2023/04/06 02:38:43;;;;;;;1999.90;999.90;;;2.80;99.90;;;;;;5016313;28;20552;-74
2023/04/06 02:41:09;;;;;;;1999.90;999.90;;;2.80;99.90;;;;;;5015924;28;20195;-72
2023/04/06 02:43:34;;;;;;;1999.90;999.90;;;2.80;99.90;;;;;;5015087;28;20415;-73
2023/04/06 02:46:00;;;;;;;1999.90;999.90;;;2.70;99.90;;;;;;5016275;28;20260;-74
2023/04/06 02:48:26;;;;;;;1999.90;999.90;;;2.60;99.90;;;;;;5015205;28;20216;-74
2023/04/06 02:50:51;;;;;;;1999.90;999.90;;;2.70;99.90;;;;;;5014219;28;20551;-73
2023/04/06 02:53:17;;;;;;;1999.90;999.90;;;2.70;99.90;;;;;;5012729;28;20205;-72
2023/04/06 02:55:43;;;;;;;1999.90;999.90;;;2.70;99.90;;;;;;5013169;28;20215;-73
2023/04/06 02:58:08;;;;;;;1999.90;999.90;;;2.60;99.90;;;;;;5012847;28;20188;-73
2023/04/06 03:00:34;;;;;;;1999.90;999.90;;;2.60;99.90;;;;;;5013067;28;20631;-73
2023/04/06 03:03:00;;;;;;;1999.90;999.90;;;2.70;99.90;;;;;;5013040;28;20177;-73
2023/04/06 03:05:26;;;;;;;1999.90;999.90;;;2.60;99.90;;;;;;5012839;28;20176;-73
2023/04/06 03:07:51;;;;;;;1999.90;999.90;;;2.60;99.90;;;;;;5012714;28;20204;-73
2023/04/06 03:10:17;;;;;;;1999.90;999.90;;;2.60;99.90;;;;;;5012931;28;20498;-73
2023/04/06 03:12:42;;;;;;;1999.90;999.90;;;2.60;99.90;;;;;;5012798;28;20203;-73
2023/04/06 03:15:09;;;;;;;1999.90;999.90;;;2.60;99.90;;;;;;5016278;28;20224;-73
2023/04/06 03:17:35;;;;;;;1999.90;999.90;;;2.60;99.90;;;;;;5017089;28;20189;-74
2023/04/06 03:20:00;;;;;;;1999.90;999.90;;;2.60;99.90;;;;;;5018360;28;20436;-73
2023/04/06 03:22:26;;;;;;;1999.90;999.90;;;2.60;99.90;;;;;;5017151;28;20220;-73
2023/04/06 03:24:51;;;;;;;1999.90;999.90;;;2.50;99.90;;;;;;5016686;28;20169;-74
2023/04/06 03:27:17;;;;;;;1999.90;999.90;;;2.50;99.90;;;;;;5016468;28;20263;-74
2023/04/06 03:29:43;;;;;;;1999.90;999.90;;;2.50;99.90;;;;;;5015715;28;20161;-74
2023/04/06 03:32:10;;;;;;;1999.90;999.90;;;2.40;99.90;;;;;;5015695;28;20247;-73
2023/04/06 03:34:35;;;;;;;1999.90;999.90;;;2.40;99.90;;;;;;5014576;28;20502;-73
2023/04/06 03:37:01;;;;;;;1999.90;999.90;;;2.30;99.90;;;;;;5012233;28;20276;-73
2023/04/06 03:39:26;;;;;;;1999.90;999.90;;;2.30;99.90;;;;;;5012524;28;20235;-73
2023/04/06 03:41:52;;;;;;;1999.90;999.90;;;2.30;99.90;;;;;;5012384;28;20173;-73
2023/04/06 03:44:18;;;;;;;1999.90;999.90;;;2.30;99.90;;;;;;5012006;28;20168;-73
2023/04/06 03:46:44;;;;;;;1999.90;999.90;;;2.30;99.90;;;;;;5012065;28;20193;-73
2023/04/06 03:49:09;;;;;;;1999.90;999.90;;;2.40;99.90;;;;;;5012265;28;20216;-73
2023/04/06 03:51:35;;;;;;;1999.90;999.90;;;2.30;99.90;;;;;;5012234;28;20169;-73
2023/04/06 03:54:00;;;;;;;1999.90;999.90;;;2.20;99.90;;;;;;5011764;28;20239;-73
2023/04/06 03:56:26;;;;;;;1999.90;999.90;;;2.30;99.90;;;;;;5011986;28;20192;-73
2023/04/06 03:58:52;;;;;;;1999.90;999.90;;;2.40;99.90;;;;;;5012138;28;20188;-73
2023/04/06 04:01:18;;;;;;;1999.90;999.90;;;2.20;99.90;;;;;;5012191;28;20175;-73
2023/04/06 04:03:43;;;;;;;1999.90;999.90;;;2.30;99.90;;;;;;5011730;28;20177;-73
2023/04/06 04:06:09;;;;;;;1999.90;999.90;;;2.20;99.90;;;;;;5011876;28;20435;-73
2023/04/06 04:08:35;;;;;;;1999.90;999.90;;;2.20;99.90;;;;;;5012070;28;20267;-73
2023/04/06 04:11:01;;;;;;;1999.90;999.90;;;2.20;99.90;;;;;;5012038;28;20171;-73
2023/04/06 04:13:26;;;;;;;1999.90;999.90;;;2.20;99.90;;;;;;5011557;28;20456;-73
2023/04/06 04:15:52;;;;;;;1999.90;999.90;;;2.20;99.90;;;;;;5011819;28;20411;-73
2023/04/06 04:18:18;;;;;;;1999.90;999.90;;;2.20;99.90;;;;;;5011906;28;20189;-73
2023/04/06 04:20:44;;;;;;;1999.90;999.90;;;2.30;99.90;;;;;;5012069;28;20440;-73
2023/04/06 04:23:10;;;;;;;1999.90;999.90;;;2.10;99.90;;;;;;5011524;28;20412;-73
2023/04/06 04:25:36;;;;;;;1999.90;999.90;;;2.10;99.90;;;;;;5011940;28;20495;-73
2023/04/06 04:28:02;;;;;;;1999.90;999.90;;;2.00;99.90;;;;;;5011692;28;20208;-73
2023/04/06 04:30:27;;;;;;;1999.90;999.90;;;2.00;99.90;;;;;;5011885;28;20184;-73
2023/04/06 04:32:53;;;;;;;1999.90;999.90;;;2.00;99.90;;;;;;5011833;28;20455;-74
2023/04/06 04:35:19;;;;;;;1999.90;999.90;;;1.90;99.90;;;;;;5011451;28;20169;-73
2023/04/06 04:37:45;;;;;;;1999.90;999.90;;;2.00;99.90;;;;;;5011621;28;20515;-73
2023/04/06 04:40:11;;;;;;;1999.90;999.90;;;2.00;99.90;;;;;;5011751;28;20497;-73
2023/04/06 04:42:37;;;;;;;1999.90;999.90;;;2.10;99.90;;;;;;5012001;28;20408;-73
2023/04/06 04:45:02;;;;;;;1999.90;999.90;;;2.20;99.90;;;;;;5011178;28;20416;-74
2023/04/06 04:47:28;;;;;;;1999.90;999.90;;;2.20;99.90;;;;;;5011398;28;20207;-73
2023/04/06 04:49:53;;;;;;;1999.90;999.90;;;2.10;99.90;;;;;;5012069;28;20746;-73
2023/04/06 04:52:19;;;;;;;1999.90;999.90;;;2.10;99.90;;;;;;5011674;28;20195;-73
2023/04/06 04:54:46;;;;;;;1999.90;999.90;;;2.20;99.90;;;;;;5011155;28;20173;-73
2023/04/06 04:57:12;;;;;;;1999.90;999.90;;;2.20;99.90;;;;;;5011416;28;20170;-73
2023/04/06 04:59:38;;;;;;;1999.90;999.90;;;2.30;99.90;;;;;;5012674;28;20404;-73
2023/04/06 05:02:03;;;;;;;1999.90;999.90;;;2.30;99.90;;;;;;5015287;28;20200;-73
2023/04/06 05:04:29;;;;;;;1999.90;999.90;;;2.30;99.90;;;;;;5014903;28;20282;-73
2023/04/06 05:07:08;;;;;;;1999.90;999.90;;;2.30;99.90;;;;;;5015044;28;20549;-73
2023/04/06 05:09:34;;;;;;;1999.90;999.90;;;2.40;99.90;;;;;;5015193;28;20184;-73
2023/04/06 05:12:00;;;;;;;1999.90;999.90;;;2.40;99.90;;;;;;5015194;28;20451;-73
2023/04/06 05:14:27;;;;;;;1999.90;999.90;;;2.50;99.90;;;;;;5014509;28;20408;-73
2023/04/06 05:16:53;;;;;;;1999.90;999.90;;;2.70;99.90;;;;;;5014883;28;20254;-73
2023/04/06 05:19:19;;;;;;;1999.90;999.90;;;2.60;99.90;;;;;;5014874;28;20473;-73
2023/04/06 05:21:45;;;;;;;1999.90;999.90;;;2.80;99.90;;;;;;5014937;28;20416;-73
2023/04/06 05:24:10;;;;;;;1999.90;999.90;;;2.80;99.90;;;;;;5014277;28;20185;-73
2023/04/06 05:26:36;;;;;;;1999.90;999.90;;;2.80;99.90;;;;;;5017871;28;20264;-72
2023/04/06 05:29:02;;;;;;;1999.90;999.90;;;2.80;99.90;;;;;;5018482;28;20197;-73
2023/04/06 05:31:28;;;;;;;1999.90;999.90;;;2.80;99.90;;;;;;5018349;28;20169;-73
2023/04/06 05:33:54;;;;;;;1999.90;999.90;;;2.90;99.90;;;;;;5015937;28;20861;-72
2023/04/06 05:36:20;;;;;;;1999.90;999.90;;;2.90;99.90;;;;;;5014353;28;20443;-72
2023/04/06 05:38:45;;;;;;;1999.90;999.90;;;3.00;99.90;;;;;;5014617;28;20822;-73
2023/04/06 05:41:11;;;;;;;1999.90;999.90;;;3.00;99.90;;;;;;5014571;28;20169;-73
2023/04/06 05:43:37;;;;;;;1999.90;999.90;;;3.00;99.90;;;;;;5014026;28;20169;-73
2023/04/06 05:46:02;;;;;;;1999.90;999.90;;;3.10;99.90;;;;;;5014310;28;20165;-73
2023/04/06 05:48:28;;;;;;;1999.90;999.90;;;3.20;99.90;;;;;;5014304;28;20200;-73
2023/04/06 05:50:55;;;;;;;1999.90;999.90;;;3.30;99.90;;;;;;5014297;28;20207;-73
2023/04/06 05:53:25;;;;;;;1999.90;999.90;;;3.40;99.90;;;;;;5013806;28;20239;-73
2023/04/06 05:55:51;;;;;;;1999.90;999.90;;;3.40;99.90;;;;;;5014182;28;20435;-74
2023/04/06 05:58:17;;;;;;;1999.90;999.90;;;3.50;99.90;;;;;;5014142;28;20645;-73
2023/04/06 06:00:43;;;;;;;1999.90;999.90;;;3.60;99.90;;;;;;5014268;28;20191;-73
2023/04/06 06:03:09;;;;;;;1999.90;999.90;;;3.70;99.90;;;;;;5013684;28;20169;-73
2023/04/06 06:05:35;;;;;;;1999.90;999.90;;;3.80;99.90;;;;;;5014059;28;20196;-73
2023/04/06 06:08:01;;;;;;;1999.90;999.90;;;3.90;99.90;;;;;;5013857;28;20463;-73
2023/04/06 06:10:27;;;;;;;1999.90;999.90;;;3.90;99.90;;;;;;5013671;28;20205;-73
2023/04/06 06:12:53;;;;;;;1999.90;999.90;;;4.00;99.90;;;;;;5013385;28;20503;-72
2023/04/06 06:15:19;;;;;;;1999.90;999.90;;;4.20;99.90;;;;;;5013423;28;20491;-73
2023/04/06 06:17:44;;;;;;;1999.90;999.90;;;4.20;99.90;;;;;;5013665;28;20186;-73
2023/04/06 06:20:10;;;;;;;1999.90;999.90;;;4.30;99.90;;;;;;5013860;28;20215;-73
2023/04/06 06:22:36;;;;;;;1999.90;999.90;;;4.40;99.90;;;;;;5013837;28;20173;-73
2023/04/06 06:25:02;;;;;;;1999.90;999.90;;;4.50;99.90;;;;;;5013223;28;21100;-73
2023/04/06 06:27:28;;;;;;;1999.90;999.90;;;4.70;99.90;;;;;;5013303;28;20224;-73
2023/04/06 06:29:54;;;;;;;1999.90;999.90;;;4.80;99.90;;;;;;5013628;28;20433;-73
2023/04/06 06:32:20;;;;;;;1999.90;999.90;;;4.90;99.90;;;;;;5013510;28;20220;-73
2023/04/06 06:34:45;;;;;;;1999.90;999.90;;;5.00;99.90;;;;;;5013094;28;20400;-73
2023/04/06 06:37:13;;;;;;;1999.90;999.90;;;5.10;99.90;;;;;;5013357;28;20632;-73
2023/04/06 06:39:38;;;;;;;1999.90;999.90;;;5.20;99.90;;;;;;5013542;28;20742;-73
2023/04/06 06:42:04;;;;;;;1999.90;999.90;;;5.40;99.90;;;;;;5013477;28;20407;-73
2023/04/06 06:44:29;;;;;;;1999.90;999.90;;;5.50;99.90;;;;;;5013006;28;20177;-73
2023/04/06 06:46:55;;;;;;;1999.90;999.90;;;5.70;99.90;;;;;;5013076;28;20185;-73
2023/04/06 06:49:22;;;;;;;1999.90;999.90;;;5.70;99.90;;;;;;5013107;28;20201;-73
2023/04/06 06:51:47;;;;;;;1999.90;999.90;;;5.80;99.90;;;;;;5013232;28;20631;-73
2023/04/06 06:54:13;;;;;;;1999.90;999.90;;;6.00;99.90;;;;;;5012702;28;20403;-74
2023/04/06 06:56:39;;;;;;;1999.90;999.90;;;6.00;99.90;;;;;;5012957;28;20176;-73
2023/04/06 06:59:08;;;;;;;1999.90;999.90;;;6.20;99.90;;;;;;5013157;28;20274;-73
2023/04/06 07:01:34;;;;;;;1999.90;999.90;;;6.30;99.90;;;;;;5013098;28;20427;-73
2023/04/06 07:04:00;;;;;;;1999.90;999.90;;;6.50;99.90;;;;;;5012424;28;20414;-73
2023/04/06 07:06:25;;;;;;;1999.90;999.90;;;6.60;99.90;;;;;;5012954;28;20411;-74
2023/04/06 07:08:51;;;;;;;1999.90;999.90;;;6.70;99.90;;;;;;5012878;28;20671;-73
2023/04/06 07:11:17;;;;;;;1999.90;999.90;;;6.80;99.90;;;;;;5012941;28;20829;-73
2023/04/06 07:13:43;;;;;;;1999.90;999.90;;;6.80;99.90;;;;;;5012391;28;20562;-73
2023/04/06 07:16:09;;;;;;;1999.90;999.90;;;6.80;99.90;;;;;;5012716;28;20166;-73
2023/04/06 07:18:34;;;;;;;1999.90;999.90;;;6.90;99.90;;;;;;5012606;28;20949;-73
2023/04/06 07:21:00;;;;;;;1999.90;999.90;;;6.90;99.90;;;;;;5012985;28;20653;-73
2023/04/06 07:23:26;;;;;;;1999.90;999.90;;;6.90;99.90;;;;;;5011973;28;20655;-73
2023/04/06 07:25:53;;;;;;;1999.90;999.90;;;6.90;99.90;;;;;;5012518;28;20212;-73
2023/04/06 07:28:19;;;;;;;1999.90;999.90;;;7.10;99.90;;;;;;5012636;28;20203;-73
2023/04/06 07:30:45;;;;;;;1999.90;999.90;;;7.20;99.90;;;;;;5012691;28;20941;-73
2023/04/06 07:33:11;;;;;;;1999.90;999.90;;;7.40;99.90;;;;;;5012077;28;20583;-73
2023/04/06 07:35:37;;;;;;;1999.90;999.90;;;7.60;99.90;;;;;;5012584;28;20395;-73
2023/04/06 07:38:03;;;;;;;1999.90;999.90;;;7.80;99.90;;;;;;5012332;28;20419;-73
2023/04/06 07:40:29;;;;;;;1999.90;999.90;;;7.90;99.90;;;;;;5012473;28;20896;-73
2023/04/06 07:42:54;;;;;;;1999.90;999.90;;;8.00;99.90;;;;;;5012375;28;20222;-73
2023/04/06 07:45:20;;;;;;;1999.90;999.90;;;8.20;99.90;;;;;;5011929;28;20404;-74
2023/04/06 07:47:46;;;;;;;1999.90;999.90;;;8.40;99.90;;;;;;5012012;28;20223;-73
2023/04/06 07:50:12;;;;;;;1999.90;999.90;;;8.50;99.90;;;;;;5012599;28;20207;-73
2023/04/06 07:52:38;;;;;;;1999.90;999.90;;;8.70;99.90;;;;;;5012295;28;20960;-74
2023/04/06 07:55:04;;;;;;;1999.90;999.90;;;8.80;99.90;;;;;;5011881;28;20632;-73
2023/04/06 07:57:30;;;;;;;1999.90;999.90;;;9.00;99.90;;;;;;5012125;28;20428;-73
2023/04/06 07:59:56;;;;;;;1999.90;999.90;;;9.10;99.90;;;;;;5012288;28;20411;-73
2023/04/06 08:02:21;;;;;;;1999.90;999.90;;;9.10;99.90;;;;;;5012266;28;20184;-73
2023/04/06 08:04:47;;;;;;;1999.90;999.90;;;9.30;99.90;;;;;;5011713;28;20244;-73
2023/04/06 08:07:13;;;;;;;1999.90;999.90;;;9.40;99.90;;;;;;5011926;28;20268;-73
2023/04/06 08:09:39;;;;;;;1999.90;999.90;;;9.50;99.90;;;;;;5012178;28;20180;-73
2023/04/06 08:12:05;;;;;;;1999.90;999.90;;;9.70;99.90;;;;;;5012146;28;20200;-73
2023/04/06 08:14:30;;;;;;;1999.90;999.90;;;9.80;99.90;;;;;;5011664;28;20590;-73
2023/04/06 08:16:56;;;;;;;1999.90;999.90;;;10.00;99.90;;;;;;5011853;28;20411;-73
2023/04/06 08:19:22;;;;;;;1999.90;999.90;;;10.10;99.90;;;;;;5012004;28;20195;-73
2023/04/06 08:21:48;;;;;;;1999.90;999.90;;;10.20;99.90;;;;;;5012053;28;20443;-73
2023/04/06 08:24:14;;;;;;;1999.90;999.90;;;10.40;99.90;;;;;;5011536;28;20172;-73
2023/04/06 08:26:40;;;;;;;1999.90;999.90;;;10.50;99.90;;;;;;5012002;28;20177;-73
2023/04/06 08:29:07;;;;;;;1999.90;999.90;;;10.70;99.90;;;;;;5011703;28;20431;-73
2023/04/06 08:31:33;;;;;;;1999.90;999.90;;;10.80;99.90;;;;;;5011927;28;20172;-74
2023/04/06 08:33:59;;;;;;;1999.90;999.90;;;10.90;99.90;;;;;;5011683;28;20465;-73
2023/04/06 08:36:25;;;;;;;1999.90;999.90;;;10.90;99.90;;;;;;5015546;28;20396;-73
2023/04/06 08:38:50;;;;;;;1999.90;999.90;;;11.10;99.90;;;;;;5015648;28;20184;-73
2023/04/06 08:41:17;;;;;;;1999.90;999.90;;;11.10;99.90;;;;;;5015440;28;20406;-73
2023/04/06 08:43:52;;;;;;;1999.90;999.90;;;11.10;99.90;;;;;;5015237;28;20568;-73
2023/04/06 08:46:18;;;;;;;1999.90;999.90;;;11.20;99.90;;;;;;5015470;28;20446;-73
2023/04/06 08:48:45;;;;;;;1999.90;999.90;;;11.20;99.90;;;;;;5015461;28;20933;-73
2023/04/06 08:51:11;;;;;;;1999.90;999.90;;;11.30;99.90;;;;;;5015594;28;20415;-73
2023/04/06 08:53:37;;;;;;;1999.90;999.90;;;11.20;99.90;;;;;;5015020;28;20463;-73
2023/04/06 08:56:05;;;;;;;1999.90;999.90;;;11.30;99.90;;;;;;5015395;28;20844;-73
2023/04/06 08:58:40;;;;;;;1999.90;999.90;;;11.40;99.90;;;;;;5015222;28;20425;-74
2023/04/06 09:01:10;;;;;;;1999.90;999.90;;;11.60;99.90;;;;;;5015575;28;20929;-73
2023/04/06 09:03:40;;;;;;;1999.90;999.90;;;11.60;99.90;;;;;;5014901;28;20440;-73
2023/04/06 09:06:06;;;;;;;1999.90;999.90;;;11.80;99.90;;;;;;5015146;28;20937;-73
2023/04/06 09:08:36;;;;;;;1999.90;999.90;;;12.00;99.90;;;;;;5015181;28;20436;-73
2023/04/06 09:11:02;;;;;;;1999.90;999.90;;;12.00;99.90;;;;;;5015153;28;20405;-73
2023/04/06 09:13:28;;;;;;;1999.90;999.90;;;12.00;99.90;;;;;;5014594;28;20503;-73
2023/04/06 09:16:00;;;;;;;1999.90;999.90;;;12.10;99.90;;;;;;5014867;28;20425;-73
2023/04/06 09:18:33;;;;;;;1999.90;999.90;;;12.10;99.90;;;;;;5015066;28;20456;-73
2023/04/06 09:21:06;;;;;;;1999.90;999.90;;;12.10;99.90;;;;;;5015078;28;20828;-73
2023/04/06 09:23:32;;;;;;;1999.90;999.90;;;12.20;99.90;;;;;;5014422;28;20418;-73
2023/04/06 09:26:12;;;;;;;1999.90;999.90;;;12.30;99.90;;;;;;5014782;28;20470;-73
2023/04/06 09:29:00;;;;;;;1999.90;999.90;;;12.50;99.90;;;;;;5014823;28;20424;-73
2023/04/06 09:31:28;;;;;;;1999.90;999.90;;;12.60;99.90;;;;;;5014895;28;20407;-73
2023/04/06 09:33:54;;;;;;;1999.90;999.90;;;12.80;99.90;;;;;;5014725;28;20490;-73
2023/04/06 09:36:29;;;;;;;1999.90;999.90;;;12.90;99.90;;;;;;5014789;28;20454;-73
2023/04/06 09:38:58;;;;;;;1999.90;999.90;;;13.20;99.90;;;;;;5014679;28;20433;-73
2023/04/06 09:41:28;;;;;;;1999.90;999.90;;;13.40;99.90;;;;;;5014680;28;20403;-73
2023/04/06 09:44:11;;;;;;;1999.90;999.90;;;13.50;99.90;;;;;;5014143;28;20437;-73
2023/04/06 09:46:41;;;;;;;1999.90;999.90;;;13.60;99.90;;;;;;5013977;28;20419;-73
2023/04/06 09:49:09;;;;;;;1999.90;999.90;;;13.70;99.90;;;;;;5013467;28;20429;-73
2023/04/06 09:51:39;;;;;;;1999.90;999.90;;;13.70;99.90;;;;;;5013326;28;20469;-73
2023/04/06 09:54:06;;;;;;;1999.90;999.90;;;13.80;99.90;;;;;;5012935;28;20767;-73
2023/04/06 09:57:05;;;;;;;1999.90;999.90;;;13.90;99.90;;;;;;5013148;28;20433;-73
2023/04/06 09:59:59;;;;;;;1999.90;999.90;;;14.10;99.90;;;;;;5002729;28;20893;-74
2023/04/06 10:02:44;;;;;;;1999.90;999.90;;;14.40;99.90;;;;;;5012943;28;20916;-74
2023/04/06 10:05:21;;;;;;;1999.90;999.90;;;14.60;99.90;;;;;;5012662;28;20458;-74
2023/04/06 10:07:50;;;;;;;1999.90;999.90;;;14.70;95.70;;;;;;5012860;28;20423;-74
2023/04/06 10:10:16;;;;;;;1999.90;999.90;;;14.80;93.90;;;;;;5013023;28;20394;-73
2023/04/06 10:12:42;;;;;;;1999.90;999.90;;;15.00;93.80;;;;;;5012702;28;20463;-73
2023/04/06 10:15:09;;;;;;;1999.90;999.90;;;15.00;93.20;;;;;;5012465;28;20482;-73
2023/04/06 10:17:35;;;;;;;1999.90;999.90;;;14.90;87.70;;;;;;5012653;28;20428;-74
2023/04/06 10:20:17;;;;;;;1999.90;999.90;;;15.00;79.50;;;;;;5013006;28;20979;-73
2023/04/06 10:22:52;;;;;;;1999.90;999.90;;;14.90;84.80;;;;;;5013003;28;20593;-73
2023/04/06 10:25:29;;;;;;;1999.90;999.90;;;15.00;77.70;;;;;;5012299;28;20448;-73
2023/04/06 10:28:05;;;;;;;1999.90;999.90;;;15.00;87.20;;;;;;5012579;28;20426;-74
2023/04/06 10:30:31;;;;;;;1999.90;999.90;;;15.10;81.80;;;;;;5012789;28;20397;-74
2023/04/06 10:32:57;;;;;;;1999.90;999.90;;;15.10;76.50;;;;;;5001913;28;20459;-74
2023/04/06 10:35:23;;;;;;;1999.90;999.90;;;15.40;74.70;;;;;;5007578;28;20413;-69
2023/04/06 10:38:01;;;;;;;1999.90;999.90;;;15.40;73.10;;;;;;5007670;28;20442;-69
2023/04/06 10:40:27;;;;;;;1999.90;999.90;;;15.50;68.40;;;;;;5007380;28;20420;-75
2023/04/06 10:42:55;;;;;;;1999.90;999.90;;;15.60;64.30;;;;;;5007459;28;20426;-74
2023/04/06 10:45:25;;;;;;;1999.90;999.90;;;15.70;62.30;;;;;;5006112;28;20830;-75
2023/04/06 10:47:54;;;;;;;1999.90;999.90;;;15.70;58.00;;;;;;4967294;28;1151239;-76
2023/04/06 10:50:21;;;;;;;1999.90;999.90;;;15.70;60.50;;;;;;5007394;28;20232;-76
2023/04/06 10:52:46;;;;;;;1999.90;999.90;;;15.50;64.30;;;;;;5006808;28;20973;-76
2023/04/06 10:55:14;;;;;;;1999.90;999.90;;;15.30;58.10;;;;;;5007035;28;20467;-75
2023/04/06 10:57:40;;;;;;;1999.90;999.90;;;15.40;61.00;;;;;;5005838;28;20460;-75
2023/04/06 11:00:07;;;;;;;1999.90;999.90;;;15.40;57.90;;;;;;5007719;28;20409;-75
2023/04/06 11:02:37;;;;;;;1999.90;999.90;;;15.40;54.60;;;;;;5008102;28;20925;-76
2023/04/06 11:05:04;;;;;;;1999.90;999.90;;;15.50;56.40;;;;;;5006722;28;20491;-75
2023/04/06 11:07:30;;;;;;;1999.90;999.90;;;15.50;60.20;;;;;;5006929;28;20446;-74
2023/04/06 11:09:56;;;;;;;1999.90;999.90;;;15.50;57.60;;;;;;5007504;28;20427;-73
2023/04/06 11:12:27;;;;;;;1999.90;999.90;;;15.60;56.50;;;;;;5007229;28;20459;-75
2023/04/06 11:15:04;;;;;;;1999.90;999.90;;;15.70;55.50;;;;;;5006496;28;20933;-75
2023/04/06 11:17:31;;;;;;;1999.90;999.90;;;15.60;54.80;;;;;;5006442;28;20813;-75
2023/04/06 11:19:57;;;;;;;1999.90;999.90;;;15.70;55.30;;;;;;5007215;28;20412;-75
2023/04/06 11:22:24;;;;;;;1999.90;999.90;;;15.60;52.60;;;;;;5007386;28;21025;-75
2023/04/06 11:24:50;;;;;;;1999.90;999.90;;;15.60;55.40;;;;;;5005697;28;21068;-75
2023/04/06 11:27:16;;;;;;;1999.90;999.90;;;15.50;55.30;;;;;;5007077;28;20503;-75
2023/04/06 11:29:42;;;;;;;1999.90;999.90;;;15.50;52.00;;;;;;5007249;28;20173;-75
2023/04/06 11:32:08;;;;;;;1999.90;999.90;;;15.60;51.00;;;;;;5005905;28;20449;-75
2023/04/06 11:34:38;;;;;;;1999.90;999.90;;;15.50;52.00;;;;;;5006282;28;20423;-76
2023/04/06 11:37:08;;;;;;;1999.90;999.90;;;15.20;52.40;;;;;;5007559;28;21132;-75
2023/04/06 11:39:41;;;;;;;1999.90;999.90;;;15.00;54.80;;;;;;5006103;28;20480;-75
2023/04/06 11:42:06;;;;;;;1999.90;999.90;;;14.90;53.40;;;;;;5006483;28;20422;-75
2023/04/06 11:44:43;;;;;;;1999.90;999.90;;;14.90;58.30;;;;;;5006581;28;20417;-74
2023/04/06 11:47:10;;;;;;;1999.90;999.90;;;14.70;58.10;;;;;;5006262;28;20341;-75
2023/04/06 11:49:41;;;;;;;1999.90;999.90;;;14.60;57.30;;;;;;5006769;28;20408;-75
2023/04/06 11:52:20;;;;;;;1999.90;999.90;;;14.50;56.60;;;;;;5006482;28;20683;-75
2023/04/06 11:54:47;;;;;;;1999.90;999.90;;;14.50;59.00;;;;;;5006120;28;20562;-74
2023/04/06 11:57:13;;;;;;;1999.90;999.90;;;14.50;63.60;;;;;;5006276;28;20426;-76
2023/04/06 11:59:39;;;;;;;1999.90;999.90;;;14.60;58.40;;;;;;5006573;28;20414;-72
2023/04/06 12:02:05;;;;;;;1999.90;999.90;;;14.60;58.80;;;;;;5006171;28;20474;-75
2023/04/06 12:04:31;;;;;;;1999.90;999.90;;;14.60;60.50;;;;;;5006291;28;20212;-75